Kezdőlap
METAR-TAF:

METAR-TAF

Repülőterek :

Kostanay, Kazahsztán

földrajzi szélesség: 53-12-23N, földrajzi hosszúság: 063-33-03E, magasság: 182 m

Jelenlegi meteorológiai megfigyelések

A jelentés 12 perccel ezelõtt készült, 12:30 UTC
Déli szél 8 kt
Hőmérséklet 5°C
Páratartalom 75%
Légköri nyomás 1028 hPa
Látótávolság 10 km, vagy több
felhőtlen 1500 m magasságban, és nincs gomolyfelhõ

METAR: UAUU 311230Z 18004MPS CAVOK 05/01 Q1028 R15/110065 NOSIG RMK QFE754/1006

Idő: 18:42 (12:42 UTC)

Előrejelzés

A jelentés 1 órával és 42 perccel ezelõtt készült, 11:00 UTC
Az előrejelzés 31-én 12 óra UTC és 31-én 21 óra UTC között érvényes
Déli szél 6 kt széllökések: 16 kt
Látótávolság 10 km, vagy több
felhőtlen 1500 m magasságban, és nincs gomolyfelhõ

TAF: UAUU 311100Z 3112/3121 18003G08MPS CAVOK

Meteorológiai megfigyelések és előrejelzések több, mint 4000 repülőtéren (METAR és TAF jelentéseket).

A térképen piros és sárga pontok jelzik az elérhető meteorológiai állomásokat.

Mozgassa az egeret a pont fölött, hogy megjelenjen az állomás neve.

Azután kattintson az időjárási megfigyelések és előrejelzések megtekintéséhez.

A térkép megváltoztatása: kattintson a fekete keresztel jelölt zöld gombra ráközelítéshez, a vonallal jelölt zöld gombra távolításhoz, vagy a zöld nyilakra a szomszédos térképek eléréséhez.


METAR-TAF: